Mobridge, SD

6:57 PM CST on December 18, 2014 (GMT -0600)
Mobridge Municipal | Change Station
CLOSE
Current Station
Airport
Location: Mobridge,
Elevation: 1716 ft
Nearby Weather Stations
Active Advisory: Special Statement

Elev 1716 ft 45.55 °N, 100.41 °W | Updated 5 minutes ago

Overcast
Overcast
28 °F
Feels Like 20 °F
N
8
Wind Variable Wind from SSE

Today
High -- | Low -- °F
--% Chance of Precip.
Yesterday
High -- | Low -- °F
Precip. -- in
8:17 AM 4:59 PM
Waning Crescent, 11% visible
Pressure 30.09 in
Visibility 9.0 miles
Clouds Overcast 1200 ft
Windchill 20 °F
Dew Point 25 °F
Humidity 88%
Rainfall 0.00 in
Snow Depth Not available.
UV 0 out of 12
Pollen .10 out of 12
Air Quality Not available.
Flu Activity Not available.
METAR KMBG 190052Z AUTO 16007KT 9SM OVC012 M02/M04 A3002 RMK AO2 SLP190 T10221039

More Conditions Fewer Conditions

Pressure 30.09 in
Visibility 9.0 miles
Clouds Overcast 1200 ft
Windchill 20 °F
Dew Point 25 °F
Humidity 88%
Rainfall 0.00 in
Snow Depth Not available.
UV 0 out of 12
Pollen .10 out of 12
Air Quality Not available.
Flu Activity Not available.
METAR KMBG 190052Z AUTO 16007KT 9SM OVC012 M02/M04 A3002 RMK AO2 SLP190 T10221039

More Conditions Fewer Conditions

10-Day Weather Forecast

Almanac

Astronomy

Dec. 18, 2014 Rise Set
Actual Time
Civil Twilight
Nautical Twilight
Astronomical Twilight
Moon
Length of Visible Light
Length of Day
Tomorrow will be .
, % of the Moon is Illuminated

Today's Extremes

State Highs State Lows

Community

WunderPhotos

Upload Photos

1,779,016 photos uploaded!

WunderBlogs® & News

Nearby

Air Quality

  Air Quality AQ Index Pollutant
Not available.

Snow Depth

Station Depth Elevation

Earthquake Activity

City Distance Mag. Time & Date
Minimum magnitude displayed is 2.5.

Coastal Water Temperatures

Place Temperature

Nearby Weather Stations